Time;durP1;ratioP1;P1;durP2;ratioP2;P2;SDS_P1;SDS_P2;PMS_P1;PMS_P2;Temp;Humidity;BMP_temperature;BMP_pressure;BME280_temperature;BME280_humidity;BME280_pressure;Samples;Min_cycle;Max_cycle;Signal;HPM_P1;HPM_P2
2022/08/14 00:01:03;;;;;;;6.50;1.08;;;;;;;20.90;100.00;99433.03;7392049;19;20033;-78
2022/08/14 00:03:30;;;;;;;0.52;0.25;;;;;;;20.81;100.00;99433.56;7396507;19;20019;-79
2022/08/14 00:05:59;;;;;;;1.30;0.20;;;;;;;20.76;100.00;99440.13;7395523;19;20114;-79
2022/08/14 00:08:26;;;;;;;3.55;0.63;;;;;;;20.78;100.00;99443.16;7396519;19;20007;-79
2022/08/14 00:10:52;;;;;;;11.40;0.57;;;;;;;20.69;100.00;99441.59;7393940;19;20014;-79
2022/08/14 00:13:20;;;;;;;2.85;0.68;;;;;;;20.56;100.00;99438.88;7391615;19;20054;-79
2022/08/14 00:15:48;;;;;;;0.70;0.38;;;;;;;20.44;100.00;99437.66;7392162;19;20050;-79
2022/08/14 00:18:17;;;;;;;0.90;0.20;;;;;;;20.37;100.00;99432.69;7392502;19;20105;-80
2022/08/14 00:20:44;;;;;;;1.30;0.43;;;;;;;20.27;100.00;99428.84;7392275;19;20022;-79
2022/08/14 00:23:12;;;;;;;0.60;0.40;;;;;;;20.27;100.00;99426.75;7392707;19;20022;-80
2022/08/14 00:25:39;;;;;;;5.03;0.75;;;;;;;20.20;100.00;99418.19;7394596;19;20041;-79
2022/08/14 00:28:08;;;;;;;1.98;1.15;;;;;;;20.15;100.00;99416.25;7394070;19;20018;-78
2022/08/14 00:30:35;;;;;;;1.02;0.57;;;;;;;20.15;100.00;99413.41;7391850;19;20135;-79
2022/08/14 00:33:03;;;;;;;1.52;0.85;;;;;;;20.11;100.00;99407.34;7391366;19;20014;-79
2022/08/14 00:35:30;;;;;;;1.27;0.52;;;;;;;20.14;100.00;99411.91;7394606;19;20110;-79
2022/08/14 00:37:57;;;;;;;4.60;0.52;;;;;;;20.07;100.00;99404.13;7392390;19;20018;-79
2022/08/14 00:40:23;;;;;;;2.28;0.77;;;;;;;20.00;100.00;99407.63;7391249;19;20011;-80
2022/08/14 00:42:50;;;;;;;8.48;0.73;;;;;;;19.96;100.00;99407.22;7394097;19;20507;-78
2022/08/14 00:45:17;;;;;;;0.88;0.43;;;;;;;19.96;100.00;99398.75;7393933;19;20123;-79
2022/08/14 00:47:45;;;;;;;0.40;0.40;;;;;;;19.94;100.00;99404.19;7394995;19;20038;-79
2022/08/14 00:50:20;;;;;;;1.92;0.60;;;;;;;19.91;100.00;99402.44;7392621;19;20022;-79
2022/08/14 00:52:48;;;;;;;7.22;0.47;;;;;;;19.89;100.00;99399.41;7392430;19;20015;-79
2022/08/14 00:55:14;;;;;;;1.13;0.63;;;;;;;19.90;100.00;99395.31;7394194;19;20022;-79
2022/08/14 00:57:40;;;;;;;1.30;0.60;;;;;;;19.85;100.00;99399.00;7392349;19;20314;-78
2022/08/14 01:00:16;;;;;;;7.25;1.55;;;;;;;19.83;100.00;99396.75;7393070;19;20021;-79
2022/08/14 01:02:43;;;;;;;12.43;0.47;;;;;;;19.79;100.00;99389.91;7394047;19;20038;-79
2022/08/14 01:05:22;;;;;;;1.38;0.68;;;;;;;19.71;100.00;99391.91;7397165;19;20035;-79
2022/08/14 01:07:53;;;;;;;7.07;1.40;;;;;;;19.66;100.00;99393.56;7392870;19;20018;-79
2022/08/14 01:10:19;;;;;;;1.75;0.60;;;;;;;19.61;100.00;99389.56;7393148;19;20015;-79
2022/08/14 01:12:48;;;;;;;2.10;0.57;;;;;;;19.52;100.00;99384.38;7390117;19;20371;-79
2022/08/14 01:15:15;;;;;;;7.72;1.02;;;;;;;19.47;100.00;99387.31;7393361;19;20022;-79
2022/08/14 01:23:13;;;;;;;3.67;0.93;;;;;;;19.13;100.00;99390.09;7390888;19;20602;-78
2022/08/14 01:25:40;;;;;;;1.60;1.10;;;;;;;19.02;100.00;99387.50;7393031;19;20040;-79
2022/08/14 01:28:07;;;;;;;1.65;0.85;;;;;;;18.99;100.00;99388.63;7392730;19;20014;-79
2022/08/14 01:30:37;;;;;;;2.33;0.63;;;;;;;18.98;100.00;99384.25;7391656;19;20030;-77
2022/08/14 01:33:04;;;;;;;2.50;0.68;;;;;;;18.95;100.00;99388.16;7388667;19;20500;-83
2022/08/14 01:35:30;;;;;;;1.10;0.85;;;;;;;18.96;100.00;99384.06;7394336;19;20010;-78
2022/08/14 01:37:57;;;;;;;9.63;2.05;;;;;;;18.93;100.00;99385.13;7391390;19;20018;-78
2022/08/14 01:40:25;;;;;;;2.35;0.90;;;;;;;18.89;100.00;99382.66;7393621;19;20018;-78
2022/08/14 01:42:51;;;;;;;6.15;0.65;;;;;;;18.85;100.00;99378.63;7394120;19;20017;-79
2022/08/14 01:45:17;;;;;;;7.03;1.10;;;;;;;18.84;100.00;99377.13;7391760;19;20467;-78
2022/08/14 01:47:43;;;;;;;2.60;1.17;;;;;;;18.87;100.00;99371.16;7392341;19;20252;-78
2022/08/14 01:50:10;;;;;;;3.10;0.88;;;;;;;18.85;100.00;99367.34;7391136;19;20401;-78
2022/08/14 01:52:37;;;;;;;1.38;1.00;;;;;;;18.84;100.00;99365.84;7390662;19;20021;-77
2022/08/14 01:55:07;;;;;;;2.70;1.13;;;;;;;18.84;100.00;99371.50;7390428;19;20010;-78
2022/08/14 01:57:36;;;;;;;2.40;1.07;;;;;;;18.84;100.00;99372.22;7391784;19;20014;-78
2022/08/14 02:00:11;;;;;;;3.30;0.73;;;;;;;18.86;100.00;99368.88;7387321;19;20407;-78
2022/08/14 02:02:37;;;;;;;3.95;0.88;;;;;;;18.88;100.00;99374.72;7390663;19;20110;-78
2022/08/14 02:05:04;;;;;;;4.95;1.20;;;;;;;18.88;100.00;99371.91;7395283;19;20034;-78
2022/08/14 02:07:31;;;;;;;3.78;1.33;;;;;;;18.89;100.00;99368.53;7392299;19;20517;-78
2022/08/14 02:09:57;;;;;;;2.25;1.05;;;;;;;18.91;100.00;99365.16;7394163;19;20019;-77
2022/08/14 02:12:24;;;;;;;2.97;0.70;;;;;;;18.96;100.00;99361.47;7390397;19;20062;-78
2022/08/14 02:14:50;;;;;;;3.22;1.30;;;;;;;19.06;100.00;99356.88;7390593;19;20014;-78
2022/08/14 02:17:19;;;;;;;3.22;1.60;;;;;;;19.12;100.00;99366.00;7391749;19;20049;-79
2022/08/14 02:19:46;;;;;;;2.30;0.88;;;;;;;19.09;100.00;99355.81;7394128;19;20025;-78
2022/08/14 02:22:13;;;;;;;1.40;0.50;;;;;;;19.11;100.00;99361.66;7391632;19;20173;-78
2022/08/14 02:24:39;;;;;;;4.47;1.42;;;;;;;19.11;100.00;99356.00;7391417;19;20021;-77
2022/08/14 02:27:05;;;;;;;3.13;1.25;;;;;;;19.11;100.00;99356.00;7390755;19;20018;-77
2022/08/14 02:29:31;;;;;;;4.38;1.40;;;;;;;19.13;100.00;99350.56;7391232;19;20022;-77
2022/08/14 02:32:00;;;;;;;1.60;1.25;;;;;;;19.15;100.00;99350.03;7388597;19;20018;-82
2022/08/14 02:34:32;;;;;;;2.65;1.30;;;;;;;19.21;100.00;99347.84;7390036;19;20371;-77
2022/08/14 02:37:08;;;;;;;8.52;2.08;;;;;;;19.18;100.00;99352.53;7391295;19;20015;-77
2022/08/14 02:39:38;;;;;;;6.82;1.75;;;;;;;19.19;100.00;99344.81;7394935;19;20453;-77
2022/08/14 02:42:11;;;;;;;2.83;0.83;;;;;;;19.20;100.00;99340.69;7390776;19;20379;-78
2022/08/14 02:44:39;;;;;;;3.03;1.25;;;;;;;19.16;100.00;99341.03;7389051;19;20788;-77
2022/08/14 02:47:07;;;;;;;0.90;0.65;;;;;;;19.15;100.00;99344.38;7389950;19;20018;-77
2022/08/14 02:49:34;;;;;;;3.63;1.33;;;;;;;19.09;100.00;99336.03;7392630;19;20022;-77
2022/08/14 02:52:05;;;;;;;1.83;0.75;;;;;;;19.07;100.00;99327.38;7390010;19;20018;-77
2022/08/14 02:54:33;;;;;;;3.20;1.45;;;;;;;19.01;100.00;99329.56;7389696;19;20070;-77
2022/08/14 02:57:00;;;;;;;2.83;1.30;;;;;;;18.96;100.00;99335.31;7389151;19;20476;-77
2022/08/14 02:59:30;;;;;;;2.35;1.10;;;;;;;18.95;100.00;99326.06;7390495;19;20383;-77
2022/08/14 03:01:56;;;;;;;3.20;1.17;;;;;;;18.88;100.00;99335.22;7388776;19;20013;-77
2022/08/14 03:04:27;;;;;;;4.10;2.03;;;;;;;18.78;100.00;99334.13;7391297;19;20018;-78
2022/08/14 03:06:53;;;;;;;7.93;1.90;;;;;;;18.71;100.00;99323.53;7389222;19;20025;-77
2022/08/14 03:09:20;;;;;;;6.97;2.05;;;;;;;18.64;100.00;99322.13;7393603;19;20028;-77
2022/08/14 03:11:46;;;;;;;3.08;0.68;;;;;;;18.58;100.00;99334.84;7389769;19;20015;-77
2022/08/14 03:14:12;;;;;;;4.80;1.48;;;;;;;18.53;100.00;99324.41;7395871;19;20015;-77
2022/08/14 03:16:40;;;;;;;1.42;0.90;;;;;;;18.54;100.00;99323.09;7398083;19;20073;-77
2022/08/14 03:19:08;;;;;;;11.63;1.98;;;;;;;18.55;100.00;99316.94;7400466;19;20014;-77
2022/08/14 03:21:36;;;;;;;3.92;1.45;;;;;;;18.56;100.00;99312.78;7393559;19;20016;-77
2022/08/14 03:26:30;;;;;;;2.65;1.60;;;;;;;18.58;100.00;99303.81;7397441;19;20011;-77
2022/08/14 03:28:57;;;;;;;7.38;1.90;;;;;;;18.63;100.00;99302.91;7399442;19;20027;-77
2022/08/14 03:31:23;;;;;;;3.53;0.98;;;;;;;18.59;100.00;99299.66;7392757;19;20038;-77
2022/08/14 03:33:50;;;;;;;11.70;1.50;;;;;;;18.59;100.00;99297.63;7394723;19;20022;-77
2022/08/14 03:36:19;;;;;;;3.35;1.08;;;;;;;18.58;100.00;99292.53;7394463;19;20473;-77
2022/08/14 03:38:48;;;;;;;2.03;1.08;;;;;;;18.54;100.00;99286.44;7396188;19;20023;-77
2022/08/14 03:41:20;;;;;;;1.80;1.20;;;;;;;18.55;100.00;99293.59;7393089;19;20468;-77
2022/08/14 03:43:49;;;;;;;5.18;1.08;;;;;;;18.52;100.00;99291.88;7395468;19;20023;-77
2022/08/14 03:46:16;;;;;;;9.10;1.25;;;;;;;18.48;100.00;99288.63;7397021;19;20030;-77
2022/08/14 03:48:44;;;;;;;2.63;1.58;;;;;;;18.46;100.00;99288.41;7396334;19;20010;-77
2022/08/14 03:51:12;;;;;;;2.25;1.08;;;;;;;18.45;100.00;99284.81;7395040;19;20029;-77
2022/08/14 03:53:40;;;;;;;1.40;1.00;;;;;;;18.44;100.00;99288.16;7394533;19;20024;-77
2022/08/14 03:56:12;;;;;;;1.10;0.90;;;;;;;18.42;100.00;99285.13;7393909;19;20030;-76
2022/08/14 03:58:47;;;;;;;8.65;2.13;;;;;;;18.41;100.00;99289.25;7395484;19;20006;-77
2022/08/14 04:01:16;;;;;;;2.25;0.82;;;;;;;18.36;100.00;99284.50;7392982;19;20077;-78
2022/08/14 04:03:42;;;;;;;10.15;2.40;;;;;;;18.31;100.00;99283.28;7397542;19;20018;-77
2022/08/14 04:06:09;;;;;;;2.58;1.30;;;;;;;18.29;100.00;99276.69;7395400;19;20086;-77
2022/08/14 04:08:36;;;;;;;4.45;1.45;;;;;;;18.28;100.00;99269.53;7397396;19;20025;-77
2022/08/14 04:11:04;;;;;;;4.45;1.13;;;;;;;18.26;100.00;99266.50;7392269;19;20078;-78
2022/08/14 04:13:34;;;;;;;5.03;1.15;;;;;;;18.21;100.00;99265.31;7390691;19;20421;-77
2022/08/14 04:16:03;;;;;;;3.80;1.45;;;;;;;18.13;100.00;99270.81;7391827;19;20015;-77
2022/08/14 04:18:29;;;;;;;1.17;1.05;;;;;;;18.05;100.00;99264.31;7394160;19;20010;-77
2022/08/14 04:20:56;;;;;;;7.53;2.33;;;;;;;18.00;100.00;99268.00;7391814;19;20365;-76
2022/08/14 04:23:23;;;;;;;3.47;0.90;;;;;;;17.98;100.00;99264.19;7392432;19;20018;-77
2022/08/14 04:25:53;;;;;;;5.38;1.52;;;;;;;18.01;100.00;99266.72;7394284;19;20073;-77
2022/08/14 04:28:20;;;;;;;5.03;1.73;;;;;;;18.04;100.00;99265.63;7396438;19;20018;-78
2022/08/14 04:30:47;;;;;;;2.40;1.13;;;;;;;18.06;100.00;99271.47;7391022;19;20022;-77
2022/08/14 04:33:15;;;;;;;17.42;1.85;;;;;;;18.05;100.00;99269.97;7393198;19;20014;-77
2022/08/14 04:35:41;;;;;;;1.50;0.75;;;;;;;17.68;100.00;99264.50;7395697;19;20003;-77
2022/08/14 04:43:40;;;;;;;4.75;1.42;;;;;;;18.67;100.00;99266.66;7394567;19;20015;-76
2022/08/14 04:46:13;;;;;;;9.90;1.15;;;;;;;18.67;100.00;99261.78;7393223;19;20468;-77
2022/08/14 04:48:39;;;;;;;8.02;1.63;;;;;;;18.65;100.00;99264.41;7396858;19;20484;-77
2022/08/14 04:51:12;;;;;;;10.52;1.85;;;;;;;18.67;100.00;99266.66;7391584;19;20369;-77
2022/08/14 04:53:42;;;;;;;2.88;0.85;;;;;;;18.59;100.00;99258.13;7390507;19;20027;-77
2022/08/14 04:56:14;;;;;;;1.80;0.85;;;;;;;18.61;100.00;99261.16;7391768;19;20034;-77
2022/08/14 04:58:41;;;;;;;5.45;1.10;;;;;;;18.55;100.00;99265.41;7394429;19;20443;-77
2022/08/14 05:01:09;;;;;;;3.70;1.38;;;;;;;18.49;100.00;99261.94;7392493;19;20010;-77
2022/08/14 05:03:36;;;;;;;1.45;1.23;;;;;;;18.52;100.00;99272.13;7393216;19;20022;-77
2022/08/14 05:06:06;;;;;;;2.63;1.08;;;;;;;18.51;100.00;99274.22;7394056;19;20084;-77
2022/08/14 05:08:33;;;;;;;1.95;1.17;;;;;;;18.47;100.00;99273.00;7394390;19;20091;-77
2022/08/14 05:11:02;;;;;;;8.30;2.25;;;;;;;18.48;100.00;99264.00;7390348;19;20038;-77
2022/08/14 05:13:30;;;;;;;0.82;0.73;;;;;;;18.48;100.00;99268.88;7390479;19;20124;-77
2022/08/14 05:15:57;;;;;;;3.35;1.10;;;;;;;17.79;100.00;99269.16;7389751;19;20014;-77
2022/08/14 05:18:26;;;;;;;2.60;1.00;;;;;;;17.30;100.00;99271.53;7394088;19;20018;-77
2022/08/14 05:20:55;;;;;;;2.35;1.65;;;;;;;17.29;100.00;99258.72;7390436;19;20029;-77
2022/08/14 05:23:27;;;;;;;6.10;1.98;;;;;;;17.33;100.00;99262.75;7391787;19;20022;-77
2022/08/14 05:26:01;;;;;;;2.80;1.67;;;;;;;17.34;100.00;99264.28;7392279;19;20019;-77
2022/08/14 05:28:33;;;;;;;1.85;0.82;;;;;;;17.29;100.00;99258.72;7395739;19;20465;-77
2022/08/14 05:31:02;;;;;;;3.63;1.23;;;;;;;17.34;100.00;99252.25;7390228;19;20033;-78
2022/08/14 05:33:30;;;;;;;2.80;0.85;;;;;;;17.30;100.00;99254.63;7391320;19;20052;-77
2022/08/14 05:35:59;;;;;;;3.95;1.48;;;;;;;17.25;100.00;99252.66;7390168;19;20011;-77
2022/08/14 05:38:33;;;;;;;9.43;1.75;;;;;;;17.17;100.00;99248.97;7391887;19;20344;-77
2022/08/14 05:41:01;;;;;;;4.05;1.38;;;;;;;17.18;100.00;99244.84;7391285;19;20023;-77
2022/08/14 05:43:29;;;;;;;3.00;1.08;;;;;;;17.16;100.00;99247.44;7391627;19;20048;-76
2022/08/14 05:46:00;;;;;;;3.92;1.33;;;;;;;17.14;100.00;99250.00;7393809;19;20042;-77
2022/08/14 05:48:27;;;;;;;2.10;0.98;;;;;;;17.15;100.00;99246.66;7392996;19;20022;-77
2022/08/14 05:50:54;;;;;;;2.25;0.60;;;;;;;17.20;100.00;99247.88;7390859;19;20011;-77
2022/08/14 05:53:21;;;;;;;3.53;1.85;;;;;;;17.23;100.00;99252.44;7391119;19;20038;-77
2022/08/14 05:55:48;;;;;;;2.42;1.17;;;;;;;17.25;100.00;99244.22;7391311;19;20514;-77
2022/08/14 05:58:14;;;;;;;3.90;1.85;;;;;;;17.28;100.00;99246.72;7390550;19;20517;-77
2022/08/14 06:00:43;;;;;;;1.63;0.82;;;;;;;17.28;100.00;99237.53;7388036;19;20477;-77
2022/08/14 06:03:13;;;;;;;5.28;1.20;;;;;;;17.33;100.00;99245.09;7392501;19;20044;-77
2022/08/14 06:05:40;;;;;;;6.65;1.55;;;;;;;17.33;100.00;99245.88;7394872;19;20037;-76
2022/08/14 06:08:35;;;;;;;3.17;1.58;;;;;;;17.41;100.00;99246.00;7393479;19;20532;-77
2022/08/14 06:11:04;;;;;;;4.10;1.80;;;;;;;17.43;100.00;99243.41;7389903;19;20010;-77
2022/08/14 06:13:39;;;;;;;6.13;1.50;;;;;;;17.47;100.00;99246.66;7389758;19;20473;-77
2022/08/14 06:16:06;;;;;;;4.20;1.50;;;;;;;17.56;100.00;99239.88;7389416;19;20491;-77
2022/08/14 06:18:34;;;;;;;5.78;1.98;;;;;;;17.62;100.00;99243.38;7391866;19;20030;-78
2022/08/14 06:21:02;;;;;;;2.00;1.70;;;;;;;17.65;100.00;99237.41;7388184;19;20595;-77
2022/08/14 06:23:28;;;;;;;3.58;1.25;;;;;;;17.73;100.00;99238.31;7390321;19;20669;-77
2022/08/14 06:25:54;;;;;;;3.80;1.48;;;;;;;17.74;100.00;99234.16;7390464;19;20011;-77
2022/08/14 06:28:24;;;;;;;4.78;1.50;;;;;;;17.76;100.00;99231.56;7392952;19;20085;-77
2022/08/14 06:30:52;;;;;;;4.32;1.63;;;;;;;17.80;100.00;99232.00;7389956;19;20029;-77
2022/08/14 06:33:19;;;;;;;3.90;0.93;;;;;;;17.80;100.00;99237.63;7390574;19;20011;-77
2022/08/14 06:35:46;;;;;;;3.50;0.70;;;;;;;17.85;100.00;99238.84;7393778;19;20015;-77
2022/08/14 06:38:18;;;;;;;4.57;1.38;;;;;;;17.92;100.00;99233.31;7390377;19;20022;-77
2022/08/14 06:40:45;;;;;;;2.33;1.08;;;;;;;18.06;100.00;99232.00;7387863;19;20494;-77
2022/08/14 06:43:12;;;;;;;2.38;1.05;;;;;;;18.58;100.00;99230.47;7391853;19;20066;-77
2022/08/14 06:45:41;;;;;;;3.38;1.35;;;;;;;19.27;100.00;99224.25;7389672;19;20029;-77
2022/08/14 06:48:15;;;;;;;0.85;0.65;;;;;;;19.47;100.00;99229.91;7395845;19;20006;-77
2022/08/14 06:50:42;;;;;;;5.32;1.15;;;;;;;19.64;100.00;99221.03;7395824;19;20022;-77
2022/08/14 06:53:09;;;;;;;7.28;1.33;;;;;;;19.76;100.00;99222.22;7393867;19;20030;-77
2022/08/14 06:55:35;;;;;;;4.57;1.13;;;;;;;19.47;100.00;99227.09;7395031;19;20026;-77
2022/08/14 06:58:01;;;;;;;2.92;1.38;;;;;;;19.31;100.00;99228.25;7394651;19;20389;-77
2022/08/14 07:00:28;;;;;;;2.90;1.20;;;;;;;19.51;100.00;99224.66;7393335;19;20014;-79
2022/08/14 07:05:46;;;;;;;2.45;0.73;;;;;;;19.69;100.00;99222.94;7402302;19;20026;-79
2022/08/14 07:08:28;;;;;;;0.65;0.57;;;;;;;19.83;100.00;99215.13;7399541;19;20022;-78
2022/08/14 07:10:59;;;;;;;2.55;0.63;;;;;;;19.90;100.00;99214.41;7394402;19;20018;-79
2022/08/14 07:13:26;;;;;;;2.20;0.98;;;;;;;19.97;100.00;99213.69;7395096;19;20086;-79
2022/08/14 07:15:56;;;;;;;2.42;0.57;;;;;;;20.12;100.00;99205.31;7395543;19;20014;-78
2022/08/14 07:18:29;;;;;;;1.50;0.47;;;;;;;20.20;100.00;99203.28;7394331;19;20026;-78
2022/08/14 07:20:58;;;;;;;2.83;0.50;;;;;;;20.31;100.00;99219.97;7393336;19;20015;-79
2022/08/14 07:23:25;;;;;;;3.05;0.57;;;;;;;20.38;100.00;99213.56;7397438;19;20027;-79
2022/08/14 07:25:54;;;;;;;1.98;0.80;;;;;;;20.47;100.00;99215.09;7396999;19;20018;-78
2022/08/14 07:28:33;;;;;;;0.85;0.45;;;;;;;20.52;100.00;99214.97;7397183;19;20461;-79
2022/08/14 07:31:02;;;;;;;8.48;1.00;;;;;;;20.61;100.00;99217.25;7393843;19;20011;-79
2022/08/14 07:33:30;;;;;;;2.40;0.50;;;;;;;20.69;100.00;99214.44;7392131;19;20021;-79
2022/08/14 07:36:01;;;;;;;1.80;0.38;;;;;;;20.81;100.00;99221.28;7393559;19;20038;-79
2022/08/14 07:38:28;;;;;;;4.53;0.90;;;;;;;20.96;100.00;99205.06;7396931;19;20019;-79
2022/08/14 07:40:55;;;;;;;2.67;0.70;;;;;;;21.14;100.00;99209.69;7393917;19;20018;-79
2022/08/14 07:43:22;;;;;;;1.20;0.35;;;;;;;21.22;100.00;99204.03;7397095;19;20025;-79
2022/08/14 07:45:48;;;;;;;1.55;0.77;;;;;;;21.30;100.00;99204.03;7396265;19;20032;-79
2022/08/14 07:48:14;;;;;;;13.88;0.75;;;;;;;21.37;100.00;99208.94;7395343;19;20007;-79
2022/08/14 07:50:41;;;;;;;0.55;0.20;;;;;;;21.47;100.00;99219.16;7392211;19;20741;-78
2022/08/14 07:53:07;;;;;;;0.98;0.45;;;;;;;21.62;100.00;99207.06;7392030;19;20011;-79
2022/08/14 07:55:35;;;;;;;1.27;0.50;;;;;;;21.75;100.00;99209.69;7394257;19;20362;-79
2022/08/14 07:58:02;;;;;;;1.10;0.25;;;;;;;21.80;100.00;99203.84;7396180;19;20112;-79
2022/08/14 08:00:29;;;;;;;1.60;0.65;;;;;;;21.90;100.00;99204.03;7392551;19;20039;-79
2022/08/14 08:02:55;;;;;;;2.53;0.47;;;;;;;22.04;100.00;99196.81;7395832;19;20015;-79
2022/08/14 08:05:24;;;;;;;3.15;0.88;;;;;;;22.12;100.00;99197.53;7399961;19;20070;-79
2022/08/14 08:07:52;;;;;;;3.38;0.63;;;;;;;22.20;100.00;99198.28;7396254;19;20022;-78
2022/08/14 08:10:31;;;;;;;0.93;0.35;;;;;;;22.27;100.00;99191.81;7392851;19;20026;-79
2022/08/14 08:13:04;;;;;;;1.67;0.40;;;;;;;22.32;100.00;99188.03;7392649;19;20014;-79
2022/08/14 08:15:35;;;;;;;8.60;0.65;;;;;;;22.37;100.00;99187.06;7393034;19;20040;-79
2022/08/14 08:18:04;;;;;;;3.33;0.75;;;;;;;22.44;100.00;99189.09;7394640;19;20014;-79
2022/08/14 08:20:33;;;;;;;0.95;0.52;;;;;;;22.50;100.00;99186.81;7392610;19;20014;-79
2022/08/14 08:23:01;;;;;;;1.75;0.40;;;;;;;22.58;100.00;99187.53;7392659;19;20030;-79
2022/08/14 08:25:30;;;;;;;1.02;0.50;;;;;;;22.72;100.00;99195.84;7393060;19;20035;-79
2022/08/14 08:28:23;;;;;;;0.33;0.23;;;;;;;22.88;100.00;99186.66;7392893;19;20019;-79
2022/08/14 08:31:00;;;;;;;11.30;0.80;;;;;;;23.02;100.00;99185.03;7392739;19;20022;-79
2022/08/14 08:33:30;;;;;;;0.85;0.43;;;;;;;23.14;100.00;99183.25;7393202;19;20082;-80
2022/08/14 08:36:04;;;;;;;1.20;0.30;;;;;;;23.29;100.00;99171.03;7393781;19;20023;-79
2022/08/14 08:38:31;;;;;;;1.75;0.40;;;;;;;23.41;100.00;99169.25;7395026;19;20010;-79
2022/08/14 08:40:59;;;;;;;3.80;0.85;;;;;;;23.50;100.00;99168.59;7391258;19;20027;-79
2022/08/14 08:43:28;;;;;;;3.25;0.68;;;;;;;23.61;100.00;99162.44;7393456;19;20115;-79
2022/08/14 08:46:09;;;;;;;9.82;0.80;;;;;;;23.73;100.00;99166.31;7390860;19;20418;-79
2022/08/14 08:48:55;;;;;;;0.65;0.28;;;;;;;23.85;100.00;99169.41;7396071;19;20030;-79
2022/08/14 08:51:29;;;;;;;1.42;0.40;;;;;;;24.01;100.00;99157.28;7391628;19;20038;-80
2022/08/14 08:53:55;;;;;;;2.00;0.45;;;;;;;24.10;100.00;99158.75;7392412;19;20014;-79
2022/08/14 08:56:48;;;;;;;0.70;0.10;;;;;;;24.24;100.00;99161.97;7391776;19;20007;-79
2022/08/14 08:59:31;;;;;;;0.70;0.20;;;;;;;24.45;100.00;99153.75;7393919;19;20346;-79
2022/08/14 09:02:06;;;;;;;2.13;0.95;;;;;;;24.61;100.00;99155.81;7390823;19;20015;-79
2022/08/14 09:04:37;;;;;;;2.53;0.52;;;;;;;25.14;100.00;99160.78;7392907;19;20014;-80
2022/08/14 09:07:04;;;;;;;0.95;0.32;;;;;;;25.32;100.00;99165.03;7394084;19;20039;-81
2022/08/14 09:09:32;;;;;;;3.97;0.30;;;;;;;25.50;100.00;99157.91;7394248;19;20031;-79
2022/08/14 09:12:07;;;;;;;0.43;0.20;;;;;;;25.67;100.00;99159.13;7391300;19;20010;-80
2022/08/14 09:14:35;;;;;;;2.15;0.25;;;;;;;25.90;100.00;99159.50;7391117;19;20465;-79
2022/08/14 09:17:01;;;;;;;0.52;0.28;;;;;;;26.05;100.00;99153.50;7390845;19;20029;-79
2022/08/14 09:19:27;;;;;;;8.77;0.40;;;;;;;26.18;100.00;99161.63;7394351;19;20086;-79
2022/08/14 09:21:54;;;;;;;0.20;0.10;;;;;;;26.36;100.00;99147.94;7391027;19;20074;-79
2022/08/14 09:24:21;;;;;;;4.05;0.50;;;;;;;26.60;100.00;99149.69;7391372;19;20078;-79
2022/08/14 09:26:47;;;;;;;0.63;0.20;;;;;;;26.67;100.00;99148.78;7391430;19;20011;-79
2022/08/14 09:29:13;;;;;;;1.05;0.20;;;;;;;26.83;100.00;99145.00;7395748;19;20070;-79
2022/08/14 09:31:44;;;;;;;0.68;0.20;;;;;;;26.99;100.00;99146.16;7391288;19;20334;-79
2022/08/14 09:34:26;;;;;;;1.85;0.40;;;;;;;27.13;100.00;99142.81;7391374;19;20023;-78
2022/08/14 09:36:55;;;;;;;0.85;0.40;;;;;;;27.35;100.00;99145.16;7391538;19;20037;-78
2022/08/14 09:39:46;;;;;;;0.55;0.30;;;;;;;27.65;100.00;99146.47;7393004;19;20022;-79
2022/08/14 09:42:18;;;;;;;0.93;0.10;;;;;;;27.93;100.00;99139.78;7390816;19;20018;-79
2022/08/14 09:45:03;;;;;;;0.47;0.10;;;;;;;28.15;100.00;99138.44;7390845;19;20030;-78
2022/08/14 09:47:57;;;;;;;0.70;0.20;;;;;;;28.25;100.00;99139.09;7392505;19;20451;-79
2022/08/14 09:50:42;;;;;;;0.85;0.17;;;;;;;28.51;100.00;99132.22;7391388;19;20480;-78
2022/08/14 09:53:09;;;;;;;0.52;0.20;;;;;;;28.69;100.00;99134.78;7389183;19;20015;-78
2022/08/14 09:55:36;;;;;;;0.28;0.10;;;;;;;28.87;100.00;99115.88;7390868;19;20018;-79
2022/08/14 09:58:19;;;;;;;1.58;0.20;;;;;;;29.08;100.00;99118.63;7391818;19;20033;-78
2022/08/14 10:00:48;;;;;;;0.73;0.10;;;;;;;29.35;100.00;99109.53;7390186;19;20333;-79
2022/08/14 10:03:32;;;;;;;2.63;0.28;;;;;;;29.39;100.00;99110.53;7389816;19;20014;-79
2022/08/14 10:06:12;;;;;;;0.32;0.10;;;;;;;29.46;100.00;99106.66;7391239;19;20386;-79
2022/08/14 10:08:50;;;;;;;0.38;0.10;;;;;;;29.50;100.00;99106.16;7393509;19;20022;-80
2022/08/14 10:11:22;;;;;;;0.52;0.20;;;;;;;29.57;100.00;99097.28;7389647;19;20377;-80
2022/08/14 10:13:53;;;;;;;0.40;0.10;;;;;;;29.66;100.00;99096.41;7389791;19;20019;-80
2022/08/14 10:16:29;;;;;;;0.93;0.30;;;;;;;29.84;92.97;99093.88;7386994;19;20018;-80
2022/08/14 10:19:08;;;;;;;0.68;0.20;;;;;;;30.09;98.90;99084.53;7390528;19;20010;-80
2022/08/14 10:21:42;;;;;;;1.85;0.20;;;;;;;30.14;96.92;99084.16;7389994;19;20021;-80
2022/08/14 10:24:29;;;;;;;0.88;0.13;;;;;;;30.20;86.86;99078.00;7396932;19;20011;-80
2022/08/14 10:26:58;;;;;;;1.70;0.10;;;;;;;30.15;92.13;99076.28;7398952;19;20035;-80
2022/08/14 10:29:36;;;;;;;0.52;0.10;;;;;;;30.07;94.13;99075.81;7400147;19;20037;-79
2022/08/14 10:32:03;;;;;;;0.45;0.20;;;;;;;30.22;80.95;99075.97;7395029;19;20119;-80
2022/08/14 10:34:35;;;;;;;0.10;0.10;;;;;;;29.92;90.44;99066.38;7398192;19;20010;-79
2022/08/14 10:37:06;;;;;;;1.30;0.20;;;;;;;29.79;93.83;99069.19;7398482;19;20014;-80
2022/08/14 10:39:34;;;;;;;1.63;0.30;;;;;;;29.78;87.30;99068.41;7399617;19;20011;-79
2022/08/14 10:42:07;;;;;;;1.02;0.10;;;;;;;29.83;86.47;99070.16;7398021;19;20022;-80
2022/08/14 10:44:40;;;;;;;0.52;0.10;;;;;;;29.88;88.08;99066.16;7398010;19;20014;-79
2022/08/14 10:47:09;;;;;;;1.02;0.10;;;;;;;29.96;95.60;99066.63;7397123;19;20007;-80
2022/08/14 10:49:37;;;;;;;0.73;0.22;;;;;;;30.04;96.07;99065.59;7399448;19;20018;-79
2022/08/14 10:52:08;;;;;;;0.25;0.15;;;;;;;30.16;90.74;99049.03;7394588;19;20018;-80
2022/08/14 10:54:34;;;;;;;1.30;0.17;;;;;;;30.18;88.69;99049.91;7394325;19;20576;-79
2022/08/14 10:57:15;;;;;;;0.47;0.20;;;;;;;30.14;90.79;99046.81;7396315;19;20032;-78
2022/08/14 10:59:48;;;;;;;0.40;0.20;;;;;;;30.19;96.71;99053.53;7401403;19;20022;-79
2022/08/14 11:02:20;;;;;;;1.70;0.30;;;;;;;30.14;93.98;99049.69;7398139;19;20014;-78
2022/08/14 11:05:01;;;;;;;2.63;1.10;;;;;;;30.08;85.04;99045.72;7398682;19;20019;-80
2022/08/14 11:07:29;;;;;;;2.35;0.20;;;;;;;30.18;86.36;99038.41;7395901;19;20085;-79
2022/08/14 11:09:58;;;;;;;2.15;0.35;;;;;;;30.21;90.57;99036.41;7400770;19;20037;-79
2022/08/14 11:12:26;;;;;;;2.20;0.20;;;;;;;30.32;79.50;99029.88;7395110;19;20025;-79
2022/08/14 11:14:59;;;;;;;1.33;0.28;;;;;;;30.41;77.57;99032.53;7397350;19;20068;-79
2022/08/14 11:17:27;;;;;;;2.05;0.10;;;;;;;30.50;84.70;99025.13;7398191;19;20019;-79
2022/08/14 11:19:58;;;;;;;1.55;0.13;;;;;;;30.58;79.07;99026.31;7401617;19;20037;-79
2022/08/14 11:22:29;;;;;;;2.95;0.35;;;;;;;30.78;76.84;99020.16;7395876;19;20015;-79
2022/08/14 11:25:02;;;;;;;0.63;0.10;;;;;;;30.83;78.56;99019.75;7395787;19;20015;-78
2022/08/14 11:27:31;;;;;;;0.20;0.00;;;;;;;30.89;70.62;99013.59;7395166;19;20018;-79
2022/08/14 11:30:05;;;;;;;0.10;0.10;;;;;;;30.99;76.57;99017.03;7397535;19;20022;-79
2022/08/14 11:32:31;;;;;;;0.28;0.10;;;;;;;31.07;67.60;99012.44;7394095;19;20041;-79
2022/08/14 11:34:59;;;;;;;1.48;0.20;;;;;;;31.08;71.22;99016.06;7399734;19;20011;-80
2022/08/14 11:37:29;;;;;;;1.10;0.10;;;;;;;31.11;67.21;99012.66;7397317;19;20042;-79
2022/08/14 11:39:55;;;;;;;0.85;0.47;;;;;;;31.23;64.01;99004.63;7400458;19;20014;-79
2022/08/14 11:42:24;;;;;;;0.28;0.25;;;;;;;31.35;61.51;99010.28;7396610;19;20014;-79
2022/08/14 11:44:52;;;;;;;0.20;0.10;;;;;;;31.38;67.79;99006.84;7394159;19;20022;-80
2022/08/14 11:47:19;;;;;;;0.20;0.00;;;;;;;31.39;62.96;98996.09;7393743;19;20437;-79
2022/08/14 11:49:47;;;;;;;4.65;0.10;;;;;;;31.41;75.47;98999.84;7399566;19;20041;-78
2022/08/14 11:52:18;;;;;;;1.75;0.00;;;;;;;31.43;63.07;98993.44;7394599;19;20026;-79
2022/08/14 11:54:55;;;;;;;1.10;0.20;;;;;;;31.52;64.78;98994.59;7396765;19;20022;-79